Time;durP1;ratioP1;P1;durP2;ratioP2;P2;SDS_P1;SDS_P2;PMS_P1;PMS_P2;Temp;Humidity;BMP_temperature;BMP_pressure;BME280_temperature;BME280_humidity;BME280_pressure;Samples;Min_cycle;Max_cycle;Signal;HPM_P1;HPM_P2
2021/07/19 00:02:00;;;;;;;3.15;2.20;;;22.80;99.90;;;;;;5017979;28;20730;-77
2021/07/19 00:04:27;;;;;;;2.70;2.00;;;22.80;99.90;;;;;;5020408;28;20666;-77
2021/07/19 00:06:54;;;;;;;2.35;2.15;;;22.80;99.90;;;;;;5020507;28;20219;-77
2021/07/19 00:09:22;;;;;;;3.83;2.13;;;22.80;99.90;;;;;;5016643;28;20228;-78
2021/07/19 00:11:50;;;;;;;2.47;2.20;;;22.90;99.90;;;;;;5021225;28;20883;-77
2021/07/19 00:14:18;;;;;;;3.10;2.00;;;22.90;99.90;;;;;;5020294;28;20277;-77
2021/07/19 00:16:45;;;;;;;2.50;2.30;;;23.00;99.90;;;;;;5026047;28;20227;-77
2021/07/19 00:19:12;;;;;;;2.53;2.25;;;23.10;99.90;;;;;;5018183;28;20231;-78
2021/07/19 00:21:39;;;;;;;2.35;2.15;;;23.20;99.90;;;;;;5019227;28;20278;-77
2021/07/19 00:24:07;;;;;;;2.20;2.00;;;23.20;99.90;;;;;;5024150;28;20219;-78
2021/07/19 00:26:34;;;;;;;2.25;2.00;;;23.30;99.90;;;;;;5023419;28;20260;-77
2021/07/19 00:29:01;;;;;;;2.40;2.20;;;23.30;99.90;;;;;;5015223;28;20223;-77
2021/07/19 00:31:32;;;;;;;2.40;2.20;;;23.40;99.90;;;;;;5020590;28;20239;-77
2021/07/19 00:33:59;;;;;;;2.40;2.20;;;23.50;99.90;;;;;;5020138;28;20228;-77
2021/07/19 00:36:26;;;;;;;2.60;2.40;;;23.50;99.90;;;;;;5016006;28;20243;-77
2021/07/19 00:38:54;;;;;;;2.45;2.25;;;23.50;99.90;;;;;;5021703;28;20302;-78
2021/07/19 00:41:21;;;;;;;2.17;1.92;;;23.50;99.90;;;;;;5020211;28;21826;-77
2021/07/19 00:43:49;;;;;;;2.28;2.08;;;23.50;99.90;;;;;;5013320;28;20220;-77
2021/07/19 00:46:16;;;;;;;2.55;1.90;;;23.40;99.90;;;;;;5021309;28;20273;-78
2021/07/19 00:48:44;;;;;;;2.35;2.13;;;23.30;99.90;;;;;;5025486;28;20211;-78
2021/07/19 00:51:13;;;;;;;2.60;2.40;;;23.20;99.90;;;;;;5022745;28;20224;-77
2021/07/19 00:53:40;;;;;;;2.40;2.20;;;23.20;99.90;;;;;;5017433;28;20219;-77
2021/07/19 00:56:08;;;;;;;2.25;2.05;;;23.10;99.90;;;;;;5017823;28;20294;-77
2021/07/19 00:58:38;;;;;;;2.35;2.15;;;23.00;99.90;;;;;;5020532;28;20292;-78
2021/07/19 01:01:06;;;;;;;2.28;2.17;;;23.00;99.90;;;;;;5018524;28;20710;-78
2021/07/19 01:03:34;;;;;;;2.75;2.50;;;23.00;99.90;;;;;;5016579;28;20227;-77
2021/07/19 01:06:04;;;;;;;2.45;2.25;;;23.00;99.90;;;;;;5016172;28;20286;-78
2021/07/19 01:08:32;;;;;;;2.67;2.47;;;22.90;99.90;;;;;;5022809;28;20282;-77
2021/07/19 01:11:00;;;;;;;2.25;2.05;;;22.80;99.90;;;;;;5018756;28;20228;-77
2021/07/19 01:13:28;;;;;;;3.20;2.50;;;22.70;99.90;;;;;;5023970;28;20374;-78
2021/07/19 01:15:56;;;;;;;3.08;2.30;;;22.70;99.90;;;;;;5016917;28;20227;-77
2021/07/19 01:18:23;;;;;;;3.20;2.90;;;22.70;99.90;;;;;;5016463;28;20223;-77
2021/07/19 01:21:48;;;;;;;2.70;2.35;;;22.60;99.90;;;;;;5012251;28;20216;-77
2021/07/19 01:24:27;;;;;;;2.70;2.30;;;22.50;99.90;;;;;;5023286;28;20216;-77
2021/07/19 01:27:21;;;;;;;2.17;1.98;;;22.50;99.90;;;;;;5016799;28;20247;-78
2021/07/19 01:29:51;;;;;;;3.00;2.15;;;22.50;99.90;;;;;;5003287;28;20266;-78
2021/07/19 01:32:21;;;;;;;2.35;2.15;;;22.60;99.90;;;;;;5018151;28;20227;-77
2021/07/19 01:34:49;;;;;;;2.33;2.13;;;22.70;99.90;;;;;;5010368;28;20212;-77
2021/07/19 01:37:17;;;;;;;2.55;2.35;;;22.70;99.90;;;;;;5019413;28;20950;-77
2021/07/19 01:39:47;;;;;;;2.53;2.33;;;22.70;99.90;;;;;;5014597;28;20224;-77
2021/07/19 01:42:14;;;;;;;3.95;2.30;;;22.70;99.90;;;;;;5022093;28;20248;-77
2021/07/19 01:44:42;;;;;;;2.47;2.10;;;22.60;99.90;;;;;;5021127;28;20253;-78
2021/07/19 01:47:11;;;;;;;2.35;2.15;;;22.60;99.90;;;;;;5017341;28;20224;-77
2021/07/19 01:49:41;;;;;;;3.95;2.28;;;22.60;99.90;;;;;;5013279;28;20220;-77
2021/07/19 01:52:11;;;;;;;2.47;2.28;;;22.50;99.90;;;;;;5014742;28;20285;-78
2021/07/19 01:54:39;;;;;;;2.58;2.38;;;22.50;99.90;;;;;;5015025;28;20219;-77
2021/07/19 01:57:06;;;;;;;3.10;2.35;;;22.40;99.90;;;;;;5025512;28;20915;-77
2021/07/19 01:59:34;;;;;;;2.17;1.98;;;22.40;99.90;;;;;;5014174;28;20223;-78
2021/07/19 02:02:02;;;;;;;2.97;2.70;;;22.40;99.90;;;;;;5014092;28;20298;-77
2021/07/19 02:04:30;;;;;;;2.63;2.42;;;22.40;99.90;;;;;;5016507;28;20227;-77
2021/07/19 02:06:58;;;;;;;2.53;2.30;;;22.40;99.90;;;;;;5025987;28;20234;-78
2021/07/19 02:09:25;;;;;;;3.03;2.47;;;22.40;99.90;;;;;;5014467;28;20523;-77
2021/07/19 02:11:53;;;;;;;2.60;2.40;;;22.30;99.90;;;;;;5020872;28;20228;-77
2021/07/19 02:14:21;;;;;;;3.50;2.58;;;22.20;99.90;;;;;;5022105;28;20709;-78
2021/07/19 02:16:53;;;;;;;3.15;2.47;;;22.10;99.90;;;;;;5021643;28;20223;-77
2021/07/19 02:19:21;;;;;;;3.08;2.78;;;22.10;99.90;;;;;;5017725;28;20223;-77
2021/07/19 02:21:51;;;;;;;2.90;2.60;;;22.10;99.90;;;;;;5019785;28;20391;-78
2021/07/19 02:24:23;;;;;;;3.55;2.80;;;22.10;99.90;;;;;;5017443;28;20361;-78
2021/07/19 02:26:51;;;;;;;3.28;2.40;;;22.10;99.90;;;;;;5022163;28;20311;-78
2021/07/19 02:29:19;;;;;;;3.03;2.50;;;22.10;99.90;;;;;;5012811;28;20220;-78
2021/07/19 02:31:49;;;;;;;2.47;2.28;;;22.00;99.90;;;;;;5018420;28;20548;-77
2021/07/19 02:34:18;;;;;;;2.78;2.20;;;22.10;99.90;;;;;;5014763;28;20305;-77
2021/07/19 02:36:46;;;;;;;3.75;2.58;;;22.10;99.90;;;;;;5021549;28;20220;-78
2021/07/19 02:39:15;;;;;;;2.80;2.50;;;22.10;99.90;;;;;;5018817;28;20575;-78
2021/07/19 02:41:43;;;;;;;3.00;2.70;;;22.00;99.90;;;;;;5013475;28;20259;-78
2021/07/19 02:44:12;;;;;;;4.32;2.80;;;21.90;99.90;;;;;;5020337;28;20227;-77
2021/07/19 02:46:40;;;;;;;3.30;2.70;;;21.90;99.90;;;;;;5015206;28;20268;-78
2021/07/19 02:49:10;;;;;;;6.18;3.28;;;21.90;99.90;;;;;;5019732;28;20228;-77
2021/07/19 02:51:38;;;;;;;3.00;2.70;;;21.90;99.90;;;;;;5017434;28;20223;-75
2021/07/19 02:54:05;;;;;;;3.88;3.00;;;21.80;99.90;;;;;;5019178;28;20709;-78
2021/07/19 02:56:38;;;;;;;6.60;3.20;;;21.80;99.90;;;;;;5019100;28;20223;-77
2021/07/19 02:59:05;;;;;;;3.40;3.10;;;21.80;99.90;;;;;;5016859;28;20290;-77
2021/07/19 03:01:34;;;;;;;3.58;3.10;;;21.80;99.90;;;;;;5017971;28;20226;-77
2021/07/19 03:04:03;;;;;;;3.55;3.03;;;21.90;99.90;;;;;;5014176;28;20846;-77
2021/07/19 03:06:34;;;;;;;2.55;2.35;;;21.80;99.90;;;;;;5029911;28;20223;-78
2021/07/19 03:09:04;;;;;;;3.47;2.92;;;21.80;99.90;;;;;;5020554;28;20846;-78
2021/07/19 03:11:36;;;;;;;5.05;2.97;;;21.80;99.90;;;;;;5018689;28;20226;-77
2021/07/19 03:14:07;;;;;;;4.80;3.05;;;21.80;99.90;;;;;;5024164;28;20307;-77
2021/07/19 03:16:34;;;;;;;3.00;2.67;;;21.80;99.90;;;;;;5028264;28;20223;-78
2021/07/19 03:19:06;;;;;;;6.00;2.67;;;21.80;99.90;;;;;;5019437;28;20231;-77
2021/07/19 03:21:36;;;;;;;2.67;2.47;;;21.80;99.90;;;;;;5020734;28;20227;-77
2021/07/19 03:24:05;;;;;;;4.38;2.65;;;21.80;99.90;;;;;;5021502;28;20648;-77
2021/07/19 03:26:33;;;;;;;2.67;2.40;;;21.80;99.90;;;;;;5026400;28;20223;-79
2021/07/19 03:29:02;;;;;;;2.60;2.40;;;21.80;99.90;;;;;;5019383;28;20284;-77
2021/07/19 03:31:32;;;;;;;2.85;2.55;;;21.80;99.90;;;;;;5024161;28;20215;-76
2021/07/19 03:34:00;;;;;;;2.45;2.20;;;21.70;99.90;;;;;;5018130;28;20227;-77
2021/07/19 03:36:31;;;;;;;2.63;2.42;;;21.60;99.90;;;;;;5025856;28;20239;-78
2021/07/19 03:38:58;;;;;;;2.40;2.20;;;21.70;99.90;;;;;;5026922;28;20686;-77
2021/07/19 03:41:29;;;;;;;3.30;3.00;;;21.70;99.90;;;;;;5025809;28;20773;-77
2021/07/19 03:43:56;;;;;;;2.50;2.30;;;21.70;99.90;;;;;;5019743;28;20231;-77
2021/07/19 03:46:26;;;;;;;2.58;2.38;;;21.70;99.90;;;;;;5020780;28;20293;-77
2021/07/19 03:48:53;;;;;;;4.75;2.42;;;21.70;99.90;;;;;;5016131;28;22404;-78
2021/07/19 03:51:20;;;;;;;2.60;2.40;;;21.70;99.90;;;;;;5027378;28;20517;-77
2021/07/19 03:53:47;;;;;;;3.25;2.95;;;21.60;99.90;;;;;;5018099;28;20273;-77
2021/07/19 03:56:16;;;;;;;2.75;2.55;;;21.60;99.90;;;;;;5018324;28;20714;-79
2021/07/19 03:58:43;;;;;;;3.33;2.60;;;21.60;99.90;;;;;;5015257;28;20226;-78
2021/07/19 04:01:11;;;;;;;2.85;2.50;;;21.50;99.90;;;;;;5015022;28;20220;-77
2021/07/19 04:03:48;;;;;;;4.85;2.88;;;21.60;99.90;;;;;;5022163;28;20258;-78
2021/07/19 04:06:18;;;;;;;3.72;2.60;;;21.60;99.90;;;;;;5019541;28;20234;-77
2021/07/19 04:08:45;;;;;;;4.13;2.40;;;21.60;99.90;;;;;;5018578;28;20664;-77
2021/07/19 04:11:16;;;;;;;3.25;2.63;;;21.60;99.90;;;;;;5015861;28;20223;-77
2021/07/19 04:13:44;;;;;;;2.35;2.15;;;21.60;99.90;;;;;;5018914;28;20220;-77
2021/07/19 04:16:15;;;;;;;2.45;2.25;;;21.60;99.90;;;;;;5020947;28;20628;-77
2021/07/19 04:18:44;;;;;;;3.75;2.67;;;21.60;99.90;;;;;;5015821;28;20236;-78
2021/07/19 04:21:12;;;;;;;3.08;2.65;;;21.50;99.90;;;;;;5016760;28;20220;-77
2021/07/19 04:23:40;;;;;;;4.15;2.83;;;21.40;99.90;;;;;;5021410;28;20284;-77
2021/07/19 04:26:07;;;;;;;4.57;2.92;;;21.40;99.90;;;;;;5016761;28;20567;-79
2021/07/19 04:28:35;;;;;;;3.30;3.00;;;21.40;99.90;;;;;;5016481;28;20219;-77
2021/07/19 04:31:02;;;;;;;4.97;3.03;;;21.30;99.90;;;;;;5020865;28;20665;-78
2021/07/19 04:33:30;;;;;;;2.78;2.53;;;21.50;99.90;;;;;;5020155;28;20596;-77
2021/07/19 04:35:58;;;;;;;3.30;3.00;;;21.50;99.90;;;;;;5021915;28;20228;-77
2021/07/19 04:38:26;;;;;;;2.80;2.60;;;21.50;99.90;;;;;;5020459;28;20239;-77
2021/07/19 04:40:54;;;;;;;3.22;2.80;;;21.50;99.90;;;;;;5016513;28;20266;-77
2021/07/19 04:43:23;;;;;;;3.15;2.85;;;21.50;99.90;;;;;;5013780;28;20289;-77
2021/07/19 04:45:51;;;;;;;4.18;3.40;;;21.50;99.90;;;;;;5018456;28;20648;-77
2021/07/19 04:48:19;;;;;;;5.07;3.30;;;21.50;99.90;;;;;;5019404;28;20223;-78
2021/07/19 04:50:47;;;;;;;3.08;2.80;;;21.50;99.90;;;;;;5016703;28;20348;-78
2021/07/19 04:53:16;;;;;;;3.10;2.90;;;21.60;99.90;;;;;;5020244;28;20236;-78
2021/07/19 04:55:48;;;;;;;5.43;3.05;;;21.70;99.90;;;;;;5020588;28;20222;-77
2021/07/19 04:58:17;;;;;;;3.15;2.85;;;21.90;99.90;;;;;;5019758;28;20215;-77
2021/07/19 05:00:48;;;;;;;3.03;2.72;;;22.00;99.90;;;;;;5015748;28;20239;-77
2021/07/19 05:03:17;;;;;;;2.70;2.40;;;22.10;99.90;;;;;;5021731;28;20311;-78
2021/07/19 05:05:46;;;;;;;2.85;2.60;;;22.30;99.90;;;;;;5013680;28;20606;-78
2021/07/19 05:08:14;;;;;;;4.13;2.95;;;22.40;99.90;;;;;;5019181;28;20215;-77
2021/07/19 05:10:43;;;;;;;2.90;2.60;;;22.50;99.90;;;;;;5020607;28;20235;-77
2021/07/19 05:13:12;;;;;;;2.60;2.40;;;22.60;99.90;;;;;;5017134;28;20220;-78
2021/07/19 05:15:41;;;;;;;3.40;2.80;;;22.70;99.90;;;;;;5016487;28;20286;-77
2021/07/19 05:18:08;;;;;;;3.65;3.03;;;22.80;99.90;;;;;;5014888;28;20234;-79
2021/07/19 05:20:36;;;;;;;3.60;2.75;;;22.90;99.90;;;;;;5019269;28;20225;-77
2021/07/19 05:23:06;;;;;;;2.85;2.55;;;22.80;99.90;;;;;;5015238;28;20616;-78
2021/07/19 05:25:34;;;;;;;4.68;2.88;;;22.80;99.90;;;;;;5018333;28;20277;-77
2021/07/19 05:28:11;;;;;;;4.22;2.75;;;22.90;99.90;;;;;;5016292;28;20311;-77
2021/07/19 05:30:40;;;;;;;3.33;3.03;;;23.00;99.90;;;;;;5015700;28;20294;-77
2021/07/19 05:33:08;;;;;;;3.28;2.60;;;23.10;99.90;;;;;;5019479;28;20297;-77
2021/07/19 05:35:36;;;;;;;3.30;2.90;;;23.20;99.90;;;;;;5022761;28;20222;-77
2021/07/19 05:38:03;;;;;;;3.50;3.20;;;23.30;99.90;;;;;;5020736;28;20236;-77
2021/07/19 05:40:31;;;;;;;5.55;3.33;;;23.30;99.90;;;;;;5020029;28;20644;-77
2021/07/19 05:42:59;;;;;;;6.25;3.42;;;23.30;99.90;;;;;;5026394;28;20223;-79
2021/07/19 05:45:28;;;;;;;4.50;3.47;;;23.40;99.90;;;;;;5025927;28;20247;-79
2021/07/19 05:47:55;;;;;;;5.60;3.42;;;23.40;99.90;;;;;;5025112;28;20274;-78
2021/07/19 05:50:23;;;;;;;5.28;3.53;;;23.40;99.90;;;;;;5017789;28;20219;-79
2021/07/19 05:52:50;;;;;;;5.28;3.30;;;23.40;99.90;;;;;;5019104;28;20717;-78
2021/07/19 05:55:18;;;;;;;4.43;3.50;;;23.40;99.90;;;;;;5019020;28;20243;-77
2021/07/19 05:57:45;;;;;;;7.47;3.50;;;23.50;99.90;;;;;;5020480;28;20284;-79
2021/07/19 06:00:16;;;;;;;3.97;3.58;;;23.60;99.90;;;;;;5018607;28;20320;-78
2021/07/19 06:02:45;;;;;;;5.85;3.42;;;23.60;99.90;;;;;;5029258;28;20230;-79
2021/07/19 06:05:12;;;;;;;5.95;3.50;;;23.80;99.90;;;;;;5020591;28;20224;-78
2021/07/19 06:07:39;;;;;;;3.80;3.42;;;23.90;99.90;;;;;;5021731;28;20457;-77
2021/07/19 06:10:09;;;;;;;3.83;3.30;;;24.00;99.90;;;;;;5028005;28;20239;-76
2021/07/19 06:12:36;;;;;;;4.15;3.70;;;24.10;99.90;;;;;;5019748;28;20223;-77
2021/07/19 06:15:04;;;;;;;4.82;3.67;;;24.20;99.90;;;;;;5027848;28;20669;-77
2021/07/19 06:17:33;;;;;;;4.72;3.65;;;24.30;99.90;;;;;;5022998;28;20786;-77
2021/07/19 06:20:01;;;;;;;6.43;3.30;;;24.30;99.90;;;;;;5022370;28;20223;-78
2021/07/19 06:22:28;;;;;;;4.90;3.45;;;24.40;99.90;;;;;;5018066;28;20220;-78
2021/07/19 06:24:55;;;;;;;4.25;3.53;;;24.30;99.90;;;;;;5023313;28;20234;-78
2021/07/19 06:27:22;;;;;;;5.30;3.40;;;24.30;99.90;;;;;;5024289;28;20223;-78
2021/07/19 06:29:49;;;;;;;3.50;3.20;;;24.40;99.90;;;;;;5017232;28;20273;-78
2021/07/19 06:32:16;;;;;;;5.45;3.90;;;24.50;99.90;;;;;;5022292;28;20235;-77
2021/07/19 06:34:43;;;;;;;5.43;3.97;;;24.60;99.90;;;;;;5027333;28;20270;-80
2021/07/19 06:37:12;;;;;;;5.47;3.70;;;24.60;99.90;;;;;;5017298;28;20234;-77
2021/07/19 06:39:38;;;;;;;4.53;3.72;;;24.70;99.90;;;;;;5018224;28;20231;-77
2021/07/19 06:42:06;;;;;;;5.15;3.83;;;24.80;99.90;;;;;;5017359;28;20652;-78
2021/07/19 06:44:33;;;;;;;7.63;4.03;;;24.90;99.90;;;;;;5025031;28;20241;-78
2021/07/19 06:47:00;;;;;;;5.15;3.80;;;24.90;99.90;;;;;;5016478;28;20231;-77
2021/07/19 06:49:27;;;;;;;4.53;3.75;;;25.10;99.90;;;;;;5030114;28;20231;-77
2021/07/19 06:51:54;;;;;;;5.22;4.00;;;25.20;99.90;;;;;;5016582;28;20648;-79
2021/07/19 06:54:23;;;;;;;6.30;4.38;;;25.30;99.90;;;;;;5019234;28;20313;-76
2021/07/19 06:56:50;;;;;;;4.20;3.80;;;25.20;99.90;;;;;;5028120;28;20273;-77
2021/07/19 06:59:17;;;;;;;9.30;4.25;;;25.20;99.90;;;;;;5025995;28;20246;-80
2021/07/19 07:01:44;;;;;;;5.60;3.78;;;25.30;99.90;;;;;;5022927;28;20273;-76
2021/07/19 07:04:11;;;;;;;6.00;4.35;;;25.40;99.90;;;;;;5020856;28;20277;-76
2021/07/19 07:06:38;;;;;;;4.63;3.95;;;25.40;99.90;;;;;;5024903;28;20590;-77
2021/07/19 07:09:05;;;;;;;6.82;4.05;;;25.50;99.90;;;;;;5022052;28;20224;-77
2021/07/19 07:11:34;;;;;;;4.80;3.70;;;25.60;99.90;;;;;;5021973;28;20233;-77
2021/07/19 07:14:02;;;;;;;5.55;4.10;;;25.70;99.90;;;;;;5018546;28;20322;-77
2021/07/19 07:16:29;;;;;;;4.50;4.07;;;25.80;99.90;;;;;;5019677;28;20218;-77
2021/07/19 07:18:56;;;;;;;5.95;3.90;;;25.90;99.90;;;;;;5025407;28;20270;-78
2021/07/19 07:21:23;;;;;;;7.07;5.00;;;26.00;99.90;;;;;;5019825;28;20248;-77
2021/07/19 07:23:51;;;;;;;5.57;4.15;;;25.90;99.90;;;;;;5010410;28;20224;-79
2021/07/19 07:26:18;;;;;;;5.43;4.45;;;25.80;99.90;;;;;;5014196;28;20216;-77
2021/07/19 07:28:47;;;;;;;5.97;4.28;;;25.70;99.90;;;;;;5015411;28;20769;-78
2021/07/19 07:31:14;;;;;;;5.68;4.30;;;25.70;99.90;;;;;;5017079;28;20243;-78
2021/07/19 07:33:41;;;;;;;5.60;4.60;;;25.80;99.90;;;;;;5022258;28;20247;-77
2021/07/19 07:36:08;;;;;;;4.75;4.18;;;26.00;99.90;;;;;;5019493;28;20231;-77
2021/07/19 07:38:35;;;;;;;5.93;4.40;;;26.10;99.90;;;;;;5018912;28;20288;-78
2021/07/19 07:41:03;;;;;;;5.78;4.50;;;26.20;99.90;;;;;;5020004;28;20232;-77
2021/07/19 07:43:32;;;;;;;4.80;4.28;;;26.10;99.90;;;;;;5027943;28;20634;-77
2021/07/19 07:46:03;;;;;;;6.32;4.05;;;26.00;99.90;;;;;;5026620;28;20223;-77
2021/07/19 07:48:32;;;;;;;7.78;4.60;;;26.10;99.90;;;;;;5017291;28;20229;-80
2021/07/19 07:50:59;;;;;;;5.20;4.30;;;26.10;99.90;;;;;;5020142;28;20682;-77
2021/07/19 07:53:26;;;;;;;6.63;4.50;;;26.20;99.90;;;;;;5024143;28;20226;-78
2021/07/19 07:55:53;;;;;;;4.90;3.90;;;26.20;99.90;;;;;;5020322;28;20641;-77
2021/07/19 07:58:20;;;;;;;5.35;4.25;;;26.20;99.90;;;;;;5027412;28;20223;-78
2021/07/19 08:00:47;;;;;;;6.45;4.28;;;26.30;99.90;;;;;;5017055;28;20289;-77
2021/07/19 08:03:16;;;;;;;5.82;4.30;;;26.40;99.90;;;;;;5029421;28;20215;-78
2021/07/19 08:05:43;;;;;;;5.85;3.95;;;26.40;99.90;;;;;;5022654;28;20694;-75
2021/07/19 08:08:10;;;;;;;5.18;4.10;;;26.50;99.90;;;;;;5024346;28;20215;-78
2021/07/19 08:10:37;;;;;;;4.45;3.72;;;26.70;99.90;;;;;;5033197;28;20226;-78
2021/07/19 08:13:04;;;;;;;5.45;4.20;;;26.80;99.90;;;;;;5018540;28;20232;-78
2021/07/19 08:15:34;;;;;;;4.35;3.95;;;26.80;99.90;;;;;;5030768;28;20849;-78
2021/07/19 08:18:01;;;;;;;5.05;4.03;;;26.90;99.90;;;;;;5027597;28;20281;-80
2021/07/19 08:20:30;;;;;;;5.50;3.97;;;27.00;99.90;;;;;;5018391;28;20297;-80
2021/07/19 08:22:57;;;;;;;5.80;4.13;;;27.10;99.90;;;;;;5025807;28;20637;-78
2021/07/19 08:25:24;;;;;;;5.05;4.20;;;27.10;99.90;;;;;;5017116;28;20223;-78
2021/07/19 08:27:51;;;;;;;6.78;3.90;;;27.30;99.90;;;;;;5022184;28;20651;-78
2021/07/19 08:30:19;;;;;;;4.35;3.83;;;27.30;99.90;;;;;;5015350;28;20247;-78
2021/07/19 08:32:46;;;;;;;7.50;4.47;;;27.60;99.90;;;;;;5017222;28;20227;-77
2021/07/19 08:35:15;;;;;;;5.68;4.32;;;27.80;99.90;;;;;;5020705;28;20239;-78
2021/07/19 08:37:47;;;;;;;5.60;3.75;;;28.00;99.90;;;;;;5020573;28;20242;-78
2021/07/19 08:40:16;;;;;;;4.70;4.20;;;28.30;99.90;;;;;;5022245;28;20216;-78
2021/07/19 08:42:43;;;;;;;4.65;4.13;;;28.40;99.90;;;;;;5019111;28;20574;-79
2021/07/19 08:45:12;;;;;;;4.65;4.10;;;28.50;99.90;;;;;;5019069;28;20231;-79
2021/07/19 08:47:41;;;;;;;5.18;4.43;;;28.50;99.90;;;;;;5022868;28;20274;-78
2021/07/19 08:50:11;;;;;;;9.15;4.50;;;28.50;99.90;;;;;;5028683;28;20224;-78
2021/07/19 08:52:39;;;;;;;5.88;4.47;;;28.40;99.90;;;;;;5021223;28;20219;-78
2021/07/19 08:55:10;;;;;;;7.15;4.43;;;28.30;99.90;;;;;;5015844;28;20227;-77
2021/07/19 08:57:39;;;;;;;5.55;4.72;;;28.40;99.90;;;;;;5020666;28;20360;-77
2021/07/19 09:00:09;;;;;;;6.75;4.95;;;28.50;99.90;;;;;;5025901;28;20236;-78
2021/07/19 09:02:36;;;;;;;6.47;4.50;;;28.40;99.90;;;;;;5037308;28;20873;-78
2021/07/19 09:05:04;;;;;;;6.13;4.85;;;28.30;99.90;;;;;;5025091;28;20232;-82
2021/07/19 09:07:32;;;;;;;7.32;4.20;;;28.20;99.90;;;;;;5030004;28;20214;-79
2021/07/19 09:10:00;;;;;;;7.40;4.38;;;28.10;99.90;;;;;;5019024;28;20255;-80
2021/07/19 09:12:33;;;;;;;8.70;5.07;;;28.20;99.90;;;;;;5023184;28;20223;-78
2021/07/19 09:15:00;;;;;;;7.30;4.43;;;28.20;99.90;;;;;;5020065;28;20228;-78
2021/07/19 09:17:28;;;;;;;7.38;4.72;;;28.30;99.90;;;;;;5023217;28;20701;-78
2021/07/19 09:19:57;;;;;;;4.97;4.07;;;28.30;99.90;;;;;;5019460;28;20593;-79
2021/07/19 09:22:26;;;;;;;4.45;3.83;;;28.30;99.90;;;;;;5015196;28;20232;-78
2021/07/19 09:24:54;;;;;;;7.78;4.20;;;28.50;99.90;;;;;;5020623;28;20235;-77
2021/07/19 09:27:23;;;;;;;5.60;4.40;;;28.80;99.90;;;;;;5024259;28;20228;-77
2021/07/19 09:29:51;;;;;;;5.78;4.07;;;28.70;99.90;;;;;;5020161;28;20224;-78
2021/07/19 09:32:18;;;;;;;6.30;4.53;;;28.70;99.90;;;;;;5020632;28;20269;-78
2021/07/19 09:34:45;;;;;;;9.00;4.80;;;28.80;99.90;;;;;;5017075;28;20718;-78
2021/07/19 09:37:14;;;;;;;7.15;4.57;;;28.80;99.90;;;;;;5022233;28;20216;-78
2021/07/19 09:39:43;;;;;;;6.05;4.80;;;28.80;99.90;;;;;;5023344;28;20319;-78
2021/07/19 09:42:13;;;;;;;9.73;5.00;;;28.70;99.90;;;;;;5024360;28;20673;-78
2021/07/19 09:44:41;;;;;;;6.25;4.28;;;28.70;99.90;;;;;;5020119;28;20307;-78
2021/07/19 09:47:12;;;;;;;6.85;4.20;;;28.80;99.90;;;;;;5017687;28;20220;-79
2021/07/19 09:49:40;;;;;;;5.07;4.10;;;29.00;99.90;;;;;;5020326;28;20218;-80
2021/07/19 09:52:09;;;;;;;4.43;4.03;;;29.40;99.90;;;;;;5024522;28;20652;-78
2021/07/19 09:54:38;;;;;;;5.07;4.25;;;29.60;99.90;;;;;;5034955;28;20219;-78
2021/07/19 09:57:06;;;;;;;7.18;4.72;;;29.60;99.90;;;;;;5015010;28;20284;-78
2021/07/19 09:59:34;;;;;;;9.65;5.00;;;29.60;99.90;;;;;;5025684;28;20219;-78
2021/07/19 10:02:02;;;;;;;5.82;4.80;;;29.50;99.90;;;;;;5015130;28;20235;-80
2021/07/19 10:04:30;;;;;;;6.90;4.97;;;29.50;99.90;;;;;;5023658;28;20251;-78
2021/07/19 10:07:00;;;;;;;6.82;4.28;;;29.60;99.90;;;;;;5024145;28;20231;-81
2021/07/19 10:09:27;;;;;;;4.97;4.38;;;29.60;99.90;;;;;;5020683;28;20216;-80
2021/07/19 10:11:57;;;;;;;11.02;4.90;;;29.80;99.90;;;;;;5014117;28;20667;-78
2021/07/19 10:14:27;;;;;;;8.10;4.93;;;30.10;99.90;;;;;;5017913;28;20228;-78
2021/07/19 10:16:55;;;;;;;8.63;5.03;;;30.00;99.90;;;;;;5019222;28;20224;-79
2021/07/19 10:19:23;;;;;;;7.13;4.43;;;29.80;99.90;;;;;;5011185;28;20286;-80
2021/07/19 10:21:52;;;;;;;6.63;4.95;;;29.70;99.90;;;;;;5032448;28;20591;-78
2021/07/19 10:24:20;;;;;;;6.28;4.82;;;29.70;99.90;;;;;;5018792;28;20227;-78
2021/07/19 10:26:48;;;;;;;8.00;4.95;;;29.90;99.90;;;;;;5021346;28;20238;-78
2021/07/19 10:29:17;;;;;;;8.23;4.82;;;30.00;99.90;;;;;;5020001;28;20285;-79
2021/07/19 10:31:45;;;;;;;5.35;4.68;;;30.00;99.90;;;;;;5018591;28;20618;-78
2021/07/19 10:34:15;;;;;;;5.72;4.70;;;30.00;99.90;;;;;;5023002;28;20227;-79
2021/07/19 10:36:49;;;;;;;7.88;4.88;;;30.00;99.90;;;;;;5022005;28;20303;-78
2021/07/19 10:39:25;;;;;;;7.18;5.00;;;30.00;99.90;;;;;;5019360;28;20299;-79
2021/07/19 10:42:04;;;;;;;8.10;5.35;;;30.20;99.90;;;;;;5022309;28;20233;-78
2021/07/19 10:44:35;;;;;;;9.13;5.05;;;30.10;99.90;;;;;;5020572;28;20223;-78
2021/07/19 10:47:17;;;;;;;7.35;5.53;;;30.20;99.90;;;;;;5016899;28;20227;-78
2021/07/19 10:49:56;;;;;;;12.88;5.15;;;30.30;99.90;;;;;;5020988;28;20306;-78
2021/07/19 10:52:31;;;;;;;8.48;4.78;;;30.50;99.90;;;;;;5017506;28;20239;-77
2021/07/19 10:55:02;;;;;;;7.38;4.43;;;30.50;99.90;;;;;;5017781;28;20239;-78
2021/07/19 10:57:39;;;;;;;6.45;4.85;;;30.50;99.90;;;;;;5017358;28;20226;-78
2021/07/19 11:00:09;;;;;;;7.22;4.82;;;30.80;99.90;;;;;;5017993;28;20560;-80
2021/07/19 11:02:36;;;;;;;10.50;5.25;;;30.80;99.90;;;;;;5015288;28;20224;-78
2021/07/19 11:05:04;;;;;;;8.07;4.82;;;30.80;99.90;;;;;;5020152;28;20752;-78
2021/07/19 11:07:40;;;;;;;6.00;4.80;;;30.80;99.90;;;;;;5028071;28;20223;-78
2021/07/19 11:10:16;;;;;;;4.65;4.00;;;30.80;99.90;;;;;;5019592;28;20243;-80
2021/07/19 11:12:51;;;;;;;6.25;4.63;;;31.00;99.90;;;;;;5023090;28;20230;-77
2021/07/19 11:15:21;;;;;;;6.35;4.47;;;31.30;99.90;;;;;;5020359;28;20270;-79
2021/07/19 11:17:48;;;;;;;4.88;4.07;;;31.50;99.90;;;;;;5020533;28;20220;-79
2021/07/19 11:20:17;;;;;;;6.15;4.40;;;31.70;99.90;;;;;;5021429;28;20302;-79
2021/07/19 11:22:45;;;;;;;7.05;4.70;;;31.80;99.90;;;;;;5024743;28;20326;-78
2021/07/19 11:25:16;;;;;;;6.35;4.43;;;31.70;99.90;;;;;;5021216;28;20632;-77
2021/07/19 11:27:44;;;;;;;7.15;4.78;;;31.50;99.90;;;;;;5018524;28;20314;-77
2021/07/19 11:30:17;;;;;;;7.60;4.72;;;31.40;99.90;;;;;;5022506;28;20271;-80
2021/07/19 11:32:44;;;;;;;7.28;4.43;;;31.40;99.90;;;;;;5022583;28;20305;-79
2021/07/19 11:35:14;;;;;;;8.98;4.22;;;31.30;99.90;;;;;;5020170;28;20747;-78
2021/07/19 11:37:44;;;;;;;9.45;5.25;;;31.30;99.90;;;;;;5018705;28;20643;-79
2021/07/19 11:40:13;;;;;;;7.00;4.47;;;31.40;99.90;;;;;;5019323;28;20346;-77
2021/07/19 11:42:44;;;;;;;8.50;4.53;;;31.50;99.90;;;;;;5015212;28;20643;-78
2021/07/19 11:45:13;;;;;;;7.25;4.60;;;31.60;99.90;;;;;;5017279;28;20727;-77
2021/07/19 11:47:45;;;;;;;5.93;4.60;;;31.80;99.90;;;;;;5020034;28;20219;-78
2021/07/19 11:50:15;;;;;;;7.60;4.53;;;32.10;99.90;;;;;;5016532;28;20223;-77
2021/07/19 11:52:43;;;;;;;7.03;4.45;;;32.30;99.90;;;;;;5016894;28;20286;-80
2021/07/19 11:55:12;;;;;;;6.53;4.93;;;32.20;98.90;;;;;;5023835;28;20234;-78
2021/07/19 11:57:49;;;;;;;7.55;4.50;;;32.20;97.80;;;;;;5017801;28;20234;-77
2021/07/19 12:00:27;;;;;;;7.57;4.70;;;32.00;98.00;;;;;;5023967;28;20249;-78
2021/07/19 12:03:06;;;;;;;6.90;4.78;;;32.00;98.50;;;;;;5011576;28;20227;-77
2021/07/19 12:05:34;;;;;;;9.30;4.90;;;32.10;96.10;;;;;;5012993;28;20219;-79
2021/07/19 12:08:03;;;;;;;7.13;4.20;;;32.10;97.50;;;;;;5017632;28;20366;-78
2021/07/19 12:10:33;;;;;;;9.50;4.63;;;32.20;97.20;;;;;;5017213;28;20223;-77
2021/07/19 12:13:08;;;;;;;7.57;4.68;;;32.30;96.20;;;;;;5017302;28;20223;-79
2021/07/19 12:15:35;;;;;;;7.85;3.78;;;32.40;96.60;;;;;;5017332;28;20219;-79
2021/07/19 12:18:02;;;;;;;9.18;4.50;;;32.40;96.50;;;;;;5012600;28;20326;-77
2021/07/19 12:20:30;;;;;;;6.90;4.00;;;32.40;96.20;;;;;;5019067;28;20222;-80
2021/07/19 12:22:58;;;;;;;6.95;4.55;;;32.40;95.10;;;;;;5014946;28;20221;-78
2021/07/19 12:25:25;;;;;;;8.23;4.20;;;32.40;95.50;;;;;;5019139;28;20228;-78
2021/07/19 12:27:59;;;;;;;8.88;4.65;;;32.60;96.00;;;;;;5020053;28;20235;-79
2021/07/19 12:30:28;;;;;;;6.80;3.85;;;32.70;95.60;;;;;;5016563;28;20229;-77
2021/07/19 12:32:56;;;;;;;9.82;4.65;;;32.80;96.00;;;;;;5018060;28;20247;-76
2021/07/19 12:35:27;;;;;;;6.53;4.35;;;32.80;95.40;;;;;;5018988;28;20223;-79
2021/07/19 12:37:59;;;;;;;6.95;4.82;;;32.70;95.40;;;;;;5015444;28;20227;-77
2021/07/19 12:40:27;;;;;;;7.35;4.55;;;32.60;95.00;;;;;;5022980;28;20764;-77
2021/07/19 12:42:55;;;;;;;7.88;4.50;;;32.50;94.80;;;;;;5021382;28;20231;-79
2021/07/19 12:45:22;;;;;;;7.72;4.55;;;32.50;94.80;;;;;;5020527;28;20228;-79
2021/07/19 12:47:51;;;;;;;7.70;4.47;;;32.50;94.30;;;;;;5015347;28;20228;-81
2021/07/19 12:50:20;;;;;;;7.75;4.22;;;32.60;93.70;;;;;;5018500;28;20224;-76
2021/07/19 12:52:47;;;;;;;8.07;4.50;;;32.80;94.50;;;;;;5017227;28;20345;-78
2021/07/19 12:55:22;;;;;;;10.48;4.68;;;32.90;94.70;;;;;;5012409;28;20220;-78